OITM  Sahand Airport

Add Bookmark

Maragheh, Iran

Status IATA
Operational ACP
Latitude Longitude
37° 20' 52" N 46° 7' 40" E
37.348000 46.127899
Local (DST + 5) UTC (GMT + 4)
Jul 31, 2014 07:48 Jul 31, 2014 03:18
Sunrise-Sunset Local UTC
Begin Civil Twilight 05:58 01:28
Sunrise 06:27 01:57
Sunset 08:35 16:05
End Civil Twilight 09:04 16:34

Current Weather

METAR Observed VFR
OITM 310300Z 10016KT CAVOK 20/07 Q1013 Thu, Jul 31, 2014 @ 03:00 UTC
(18 Minutes ago)
Visual Flight Rules

Decoded METAR

Wind Visibility Clouds Conditions
100° at 16 knots (30 kph) 10 km or more
  • Clear skies
  • No significant weather
Temperatures Readings Precipitation
Current Temp 20°C (68°F)
Dewpoint 7°C (45°F)
Humidity 43%
Altimeter 29.91"Hg
Sea Level Pressure 1013mb
Field Elevation 4396.33'
None Recorded

Additional weather within a 92.6km radius of OITM

Map ICAO Location
OITT 87.8km N (006°)

24 Hour Weather History

Loading
-

24 Hour Weather Graphs

Loading
-

CheckWX.com is intended as a tool to help pilots better visualize weather data. It is not intended as a substitute for an official weather briefing obtained from a Flight Service Station. CheckWX.com does not meet the FAA requirements for an official pre-flight weather briefing. Therefore, it's important that pilots still call and obtain an official FSS pre-flight weather briefing.